sensor_id;sensor_type;location;lat;lon;timestamp;temperature;humidity
21495;DHT22;10909;53.590;10.054;2023-04-07T00:00:21;10.20;42.30
21495;DHT22;10909;53.590;10.054;2023-04-07T00:02:46;10.20;42.40
21495;DHT22;10909;53.590;10.054;2023-04-07T00:05:13;10.20;42.30
21495;DHT22;10909;53.590;10.054;2023-04-07T00:07:39;10.20;42.40
21495;DHT22;10909;53.590;10.054;2023-04-07T00:10:06;10.10;42.40
21495;DHT22;10909;53.590;10.054;2023-04-07T00:12:33;10.10;42.50
21495;DHT22;10909;53.590;10.054;2023-04-07T00:15:01;10.10;42.50
21495;DHT22;10909;53.590;10.054;2023-04-07T00:17:27;10.10;42.70
21495;DHT22;10909;53.590;10.054;2023-04-07T00:19:52;10.00;42.60
21495;DHT22;10909;53.590;10.054;2023-04-07T00:22:18;10.00;42.70
21495;DHT22;10909;53.590;10.054;2023-04-07T00:24:44;10.00;42.70
21495;DHT22;10909;53.590;10.054;2023-04-07T00:27:09;10.00;42.70
21495;DHT22;10909;53.590;10.054;2023-04-07T00:29:35;9.90;42.80
21495;DHT22;10909;53.590;10.054;2023-04-07T00:32:01;9.90;42.90
21495;DHT22;10909;53.590;10.054;2023-04-07T00:34:27;9.90;42.90
21495;DHT22;10909;53.590;10.054;2023-04-07T00:36:53;9.80;42.80
21495;DHT22;10909;53.590;10.054;2023-04-07T00:39:19;9.80;43.00
21495;DHT22;10909;53.590;10.054;2023-04-07T00:41:46;10.00;43.30
21495;DHT22;10909;53.590;10.054;2023-04-07T00:44:12;9.80;43.30
21495;DHT22;10909;53.590;10.054;2023-04-07T00:46:38;9.80;43.20
21495;DHT22;10909;53.590;10.054;2023-04-07T00:49:06;9.70;43.10
21495;DHT22;10909;53.590;10.054;2023-04-07T00:51:32;9.70;43.50
21495;DHT22;10909;53.590;10.054;2023-04-07T00:53:59;9.70;43.30
21495;DHT22;10909;53.590;10.054;2023-04-07T00:56:26;9.60;43.30
21495;DHT22;10909;53.590;10.054;2023-04-07T00:58:56;9.60;43.60
21495;DHT22;10909;53.590;10.054;2023-04-07T01:01:26;9.60;43.60
21495;DHT22;10909;53.590;10.054;2023-04-07T01:04:06;9.60;43.60
21495;DHT22;10909;53.590;10.054;2023-04-07T01:06:37;9.50;43.60
21495;DHT22;10909;53.590;10.054;2023-04-07T01:09:18;9.50;43.60
21495;DHT22;10909;53.590;10.054;2023-04-07T01:14:33;9.50;44.00
21495;DHT22;10909;53.590;10.054;2023-04-07T01:17:04;9.40;43.80
21495;DHT22;10909;53.590;10.054;2023-04-07T01:19:46;9.40;43.80
21495;DHT22;10909;53.590;10.054;2023-04-07T01:22:15;9.30;44.00
21495;DHT22;10909;53.590;10.054;2023-04-07T01:24:53;9.30;44.30
21495;DHT22;10909;53.590;10.054;2023-04-07T01:30:22;9.20;45.00
21495;DHT22;10909;53.590;10.054;2023-04-07T01:32:52;9.20;45.20
21495;DHT22;10909;53.590;10.054;2023-04-07T01:35:21;9.10;44.60
21495;DHT22;10909;53.590;10.054;2023-04-07T01:37:50;9.10;44.80
21495;DHT22;10909;53.590;10.054;2023-04-07T01:40:19;9.00;44.60
21495;DHT22;10909;53.590;10.054;2023-04-07T01:42:48;9.00;44.50
21495;DHT22;10909;53.590;10.054;2023-04-07T01:45:16;9.10;44.70
21495;DHT22;10909;53.590;10.054;2023-04-07T01:47:42;9.00;44.70
21495;DHT22;10909;53.590;10.054;2023-04-07T01:50:10;9.00;44.60
21495;DHT22;10909;53.590;10.054;2023-04-07T01:52:37;8.90;44.70
21495;DHT22;10909;53.590;10.054;2023-04-07T01:55:04;8.90;44.80
21495;DHT22;10909;53.590;10.054;2023-04-07T01:57:30;8.90;44.90
21495;DHT22;10909;53.590;10.054;2023-04-07T01:59:58;8.90;44.80
21495;DHT22;10909;53.590;10.054;2023-04-07T02:02:24;8.80;44.70
21495;DHT22;10909;53.590;10.054;2023-04-07T02:04:54;8.80;44.80
21495;DHT22;10909;53.590;10.054;2023-04-07T02:07:45;8.80;44.60
21495;DHT22;10909;53.590;10.054;2023-04-07T02:10:14;8.70;44.20
21495;DHT22;10909;53.590;10.054;2023-04-07T02:12:41;8.70;44.20
21495;DHT22;10909;53.590;10.054;2023-04-07T02:15:13;8.70;44.40
21495;DHT22;10909;53.590;10.054;2023-04-07T02:17:42;8.70;44.70
21495;DHT22;10909;53.590;10.054;2023-04-07T02:20:11;8.70;45.00
21495;DHT22;10909;53.590;10.054;2023-04-07T02:22:38;8.70;45.00
21495;DHT22;10909;53.590;10.054;2023-04-07T02:25:24;8.70;45.00
21495;DHT22;10909;53.590;10.054;2023-04-07T02:27:51;8.70;45.70
21495;DHT22;10909;53.590;10.054;2023-04-07T02:30:17;8.60;45.10
21495;DHT22;10909;53.590;10.054;2023-04-07T02:32:43;8.60;45.20
21495;DHT22;10909;53.590;10.054;2023-04-07T02:35:09;8.60;45.20
21495;DHT22;10909;53.590;10.054;2023-04-07T02:37:36;8.50;45.30
21495;DHT22;10909;53.590;10.054;2023-04-07T02:40:03;8.50;45.20
21495;DHT22;10909;53.590;10.054;2023-04-07T02:42:31;8.50;44.90
21495;DHT22;10909;53.590;10.054;2023-04-07T02:44:57;8.40;50.00
21495;DHT22;10909;53.590;10.054;2023-04-07T02:47:23;8.50;45.50
21495;DHT22;10909;53.590;10.054;2023-04-07T02:49:49;8.50;45.30
21495;DHT22;10909;53.590;10.054;2023-04-07T02:52:16;8.50;45.40
21495;DHT22;10909;53.590;10.054;2023-04-07T02:54:42;8.40;45.30
21495;DHT22;10909;53.590;10.054;2023-04-07T02:57:08;8.40;45.40
21495;DHT22;10909;53.590;10.054;2023-04-07T02:59:34;8.40;45.40
21495;DHT22;10909;53.590;10.054;2023-04-07T03:02:01;8.30;45.40
21495;DHT22;10909;53.590;10.054;2023-04-07T03:04:28;8.20;45.40
21495;DHT22;10909;53.590;10.054;2023-04-07T03:06:54;8.30;45.50
21495;DHT22;10909;53.590;10.054;2023-04-07T03:09:21;8.30;45.50
21495;DHT22;10909;53.590;10.054;2023-04-07T03:11:47;8.30;45.50
21495;DHT22;10909;53.590;10.054;2023-04-07T03:14:13;8.30;45.40
21495;DHT22;10909;53.590;10.054;2023-04-07T03:16:42;8.30;45.50
21495;DHT22;10909;53.590;10.054;2023-04-07T03:19:08;8.20;45.60
21495;DHT22;10909;53.590;10.054;2023-04-07T03:21:37;8.30;45.80
21495;DHT22;10909;53.590;10.054;2023-04-07T03:24:04;8.30;45.60
21495;DHT22;10909;53.590;10.054;2023-04-07T03:26:30;8.20;45.60
21495;DHT22;10909;53.590;10.054;2023-04-07T03:28:58;8.30;45.60
21495;DHT22;10909;53.590;10.054;2023-04-07T03:31:26;8.20;45.60
21495;DHT22;10909;53.590;10.054;2023-04-07T03:33:52;8.20;45.60
21495;DHT22;10909;53.590;10.054;2023-04-07T03:36:18;8.20;45.60
21495;DHT22;10909;53.590;10.054;2023-04-07T03:38:46;8.20;45.60
21495;DHT22;10909;53.590;10.054;2023-04-07T03:41:14;8.20;45.70
21495;DHT22;10909;53.590;10.054;2023-04-07T03:43:41;8.20;45.60
21495;DHT22;10909;53.590;10.054;2023-04-07T03:46:07;8.20;45.90
21495;DHT22;10909;53.590;10.054;2023-04-07T03:48:33;8.20;45.70
21495;DHT22;10909;53.590;10.054;2023-04-07T03:51:02;8.20;45.80
21495;DHT22;10909;53.590;10.054;2023-04-07T03:53:28;8.10;45.80
21495;DHT22;10909;53.590;10.054;2023-04-07T03:55:54;8.10;45.70
21495;DHT22;10909;53.590;10.054;2023-04-07T03:58:20;8.10;45.70
21495;DHT22;10909;53.590;10.054;2023-04-07T04:00:47;8.10;45.50
21495;DHT22;10909;53.590;10.054;2023-04-07T04:03:13;8.00;45.90
21495;DHT22;10909;53.590;10.054;2023-04-07T04:05:39;8.00;45.50
21495;DHT22;10909;53.590;10.054;2023-04-07T04:08:07;8.00;45.70
21495;DHT22;10909;53.590;10.054;2023-04-07T04:10:35;8.00;45.70
21495;DHT22;10909;53.590;10.054;2023-04-07T04:13:03;8.00;46.00
21495;DHT22;10909;53.590;10.054;2023-04-07T04:15:31;8.00;45.90
21495;DHT22;10909;53.590;10.054;2023-04-07T04:17:57;7.90;46.00
21495;DHT22;10909;53.590;10.054;2023-04-07T04:20:23;7.90;46.40
21495;DHT22;10909;53.590;10.054;2023-04-07T04:22:49;7.90;46.30
21495;DHT22;10909;53.590;10.054;2023-04-07T04:25:16;8.00;46.20
21495;DHT22;10909;53.590;10.054;2023-04-07T04:27:43;7.90;47.20
21495;DHT22;10909;53.590;10.054;2023-04-07T04:30:10;7.80;46.10
21495;DHT22;10909;53.590;10.054;2023-04-07T04:32:37;7.70;47.40
21495;DHT22;10909;53.590;10.054;2023-04-07T04:35:08;7.80;46.20
21495;DHT22;10909;53.590;10.054;2023-04-07T04:37:34;7.70;46.40
21495;DHT22;10909;53.590;10.054;2023-04-07T04:40:00;7.70;46.40
21495;DHT22;10909;53.590;10.054;2023-04-07T04:42:28;7.60;46.40
21495;DHT22;10909;53.590;10.054;2023-04-07T04:44:58;7.70;46.60
21495;DHT22;10909;53.590;10.054;2023-04-07T04:47:23;7.70;46.50
21495;DHT22;10909;53.590;10.054;2023-04-07T04:49:49;7.70;46.70
21495;DHT22;10909;53.590;10.054;2023-04-07T04:52:15;7.70;46.70
21495;DHT22;10909;53.590;10.054;2023-04-07T04:54:41;7.70;46.70
21495;DHT22;10909;53.590;10.054;2023-04-07T04:57:06;7.60;46.60
21495;DHT22;10909;53.590;10.054;2023-04-07T04:59:33;7.60;46.60
21495;DHT22;10909;53.590;10.054;2023-04-07T05:01:59;7.60;46.60
21495;DHT22;10909;53.590;10.054;2023-04-07T05:04:26;7.60;46.80
21495;DHT22;10909;53.590;10.054;2023-04-07T05:06:53;7.70;46.80
21495;DHT22;10909;53.590;10.054;2023-04-07T05:09:19;7.60;46.70
21495;DHT22;10909;53.590;10.054;2023-04-07T05:11:47;7.50;47.00
21495;DHT22;10909;53.590;10.054;2023-04-07T05:14:14;7.50;46.90
21495;DHT22;10909;53.590;10.054;2023-04-07T05:19:06;7.50;46.40
21495;DHT22;10909;53.590;10.054;2023-04-07T05:21:34;7.40;46.90
21495;DHT22;10909;53.590;10.054;2023-04-07T05:24:02;7.50;47.10
21495;DHT22;10909;53.590;10.054;2023-04-07T05:26:27;7.50;47.20
21495;DHT22;10909;53.590;10.054;2023-04-07T05:28:53;7.50;47.20
21495;DHT22;10909;53.590;10.054;2023-04-07T05:31:19;7.50;47.30
21495;DHT22;10909;53.590;10.054;2023-04-07T05:33:45;7.50;47.30
21495;DHT22;10909;53.590;10.054;2023-04-07T05:36:11;7.50;47.30
21495;DHT22;10909;53.590;10.054;2023-04-07T05:38:37;7.50;47.30
21495;DHT22;10909;53.590;10.054;2023-04-07T05:41:02;7.60;47.50
21495;DHT22;10909;53.590;10.054;2023-04-07T05:43:28;7.60;47.40
21495;DHT22;10909;53.590;10.054;2023-04-07T05:45:54;7.60;47.40
21495;DHT22;10909;53.590;10.054;2023-04-07T05:48:21;7.60;47.40
21495;DHT22;10909;53.590;10.054;2023-04-07T05:50:47;7.60;54.80
21495;DHT22;10909;53.590;10.054;2023-04-07T05:53:14;7.70;47.60
21495;DHT22;10909;53.590;10.054;2023-04-07T05:55:44;7.60;47.40
21495;DHT22;10909;53.590;10.054;2023-04-07T05:58:11;7.70;47.50
21495;DHT22;10909;53.590;10.054;2023-04-07T06:00:38;7.60;47.60
21495;DHT22;10909;53.590;10.054;2023-04-07T06:03:06;7.70;47.30
21495;DHT22;10909;53.590;10.054;2023-04-07T06:05:32;7.70;47.60
21495;DHT22;10909;53.590;10.054;2023-04-07T06:07:59;7.70;47.70
21495;DHT22;10909;53.590;10.054;2023-04-07T06:10:25;7.80;47.60
21495;DHT22;10909;53.590;10.054;2023-04-07T06:12:52;7.80;47.70
21495;DHT22;10909;53.590;10.054;2023-04-07T06:15:18;7.80;47.80
21495;DHT22;10909;53.590;10.054;2023-04-07T06:20:10;7.80;47.30
21495;DHT22;10909;53.590;10.054;2023-04-07T06:22:38;7.80;47.80
21495;DHT22;10909;53.590;10.054;2023-04-07T06:25:04;7.80;48.00
21495;DHT22;10909;53.590;10.054;2023-04-07T06:27:29;7.90;48.10
21495;DHT22;10909;53.590;10.054;2023-04-07T06:29:55;7.80;47.90
21495;DHT22;10909;53.590;10.054;2023-04-07T06:32:21;7.90;48.10
21495;DHT22;10909;53.590;10.054;2023-04-07T06:34:47;7.90;48.00
21495;DHT22;10909;53.590;10.054;2023-04-07T06:37:12;8.00;48.10
21495;DHT22;10909;53.590;10.054;2023-04-07T06:39:38;7.90;48.00
21495;DHT22;10909;53.590;10.054;2023-04-07T06:42:04;8.10;48.00
21495;DHT22;10909;53.590;10.054;2023-04-07T06:44:29;8.10;48.00
21495;DHT22;10909;53.590;10.054;2023-04-07T06:46:55;8.10;47.90
21495;DHT22;10909;53.590;10.054;2023-04-07T06:49:21;8.30;48.00
21495;DHT22;10909;53.590;10.054;2023-04-07T06:51:47;8.20;47.90
21495;DHT22;10909;53.590;10.054;2023-04-07T06:54:13;8.30;47.90
21495;DHT22;10909;53.590;10.054;2023-04-07T06:56:40;8.40;47.80
21495;DHT22;10909;53.590;10.054;2023-04-07T06:59:06;8.40;47.80
21495;DHT22;10909;53.590;10.054;2023-04-07T07:01:32;8.50;47.80
21495;DHT22;10909;53.590;10.054;2023-04-07T07:03:58;8.50;47.70
21495;DHT22;10909;53.590;10.054;2023-04-07T07:06:26;8.50;47.80
21495;DHT22;10909;53.590;10.054;2023-04-07T07:08:53;8.80;47.70
21495;DHT22;10909;53.590;10.054;2023-04-07T07:11:21;8.80;47.60
21495;DHT22;10909;53.590;10.054;2023-04-07T07:13:48;8.90;47.60
21495;DHT22;10909;53.590;10.054;2023-04-07T07:16:14;8.90;47.50
21495;DHT22;10909;53.590;10.054;2023-04-07T07:18:41;9.00;47.40
21495;DHT22;10909;53.590;10.054;2023-04-07T07:21:07;8.90;47.20
21495;DHT22;10909;53.590;10.054;2023-04-07T07:23:32;9.20;47.30
21495;DHT22;10909;53.590;10.054;2023-04-07T07:25:59;9.20;47.20
21495;DHT22;10909;53.590;10.054;2023-04-07T07:28:24;9.30;47.10
21495;DHT22;10909;53.590;10.054;2023-04-07T07:30:50;9.40;47.10
21495;DHT22;10909;53.590;10.054;2023-04-07T07:33:16;9.50;47.00
21495;DHT22;10909;53.590;10.054;2023-04-07T07:35:42;9.60;46.80
21495;DHT22;10909;53.590;10.054;2023-04-07T07:38:07;9.50;46.70
21495;DHT22;10909;53.590;10.054;2023-04-07T07:40:33;10.00;47.40
21495;DHT22;10909;53.590;10.054;2023-04-07T07:42:59;9.80;46.60
21495;DHT22;10909;53.590;10.054;2023-04-07T07:45:25;9.90;46.50
21495;DHT22;10909;53.590;10.054;2023-04-07T07:47:51;10.00;46.30
21495;DHT22;10909;53.590;10.054;2023-04-07T07:50:17;10.00;46.70
21495;DHT22;10909;53.590;10.054;2023-04-07T07:52:42;10.10;46.10
21495;DHT22;10909;53.590;10.054;2023-04-07T07:55:09;10.20;46.60
21495;DHT22;10909;53.590;10.054;2023-04-07T07:57:35;10.30;45.80
21495;DHT22;10909;53.590;10.054;2023-04-07T08:00:02;10.30;45.80
21495;DHT22;10909;53.590;10.054;2023-04-07T08:02:29;10.40;45.70
21495;DHT22;10909;53.590;10.054;2023-04-07T08:04:57;10.50;45.80
21495;DHT22;10909;53.590;10.054;2023-04-07T08:07:23;10.50;45.60
21495;DHT22;10909;53.590;10.054;2023-04-07T08:09:50;10.60;45.30
21495;DHT22;10909;53.590;10.054;2023-04-07T08:12:15;10.60;45.20
21495;DHT22;10909;53.590;10.054;2023-04-07T08:14:41;10.20;46.80
21495;DHT22;10909;53.590;10.054;2023-04-07T08:19:33;10.70;44.00
21495;DHT22;10909;53.590;10.054;2023-04-07T08:22:01;10.80;44.70
21495;DHT22;10909;53.590;10.054;2023-04-07T08:24:28;10.80;44.70
21495;DHT22;10909;53.590;10.054;2023-04-07T08:26:54;11.00;44.80
21495;DHT22;10909;53.590;10.054;2023-04-07T08:29:20;11.00;43.50
21495;DHT22;10909;53.590;10.054;2023-04-07T08:31:46;11.00;44.50
21495;DHT22;10909;53.590;10.054;2023-04-07T08:34:11;11.10;44.50
21495;DHT22;10909;53.590;10.054;2023-04-07T08:36:38;11.10;44.50
21495;DHT22;10909;53.590;10.054;2023-04-07T08:39:04;11.20;44.30
21495;DHT22;10909;53.590;10.054;2023-04-07T08:41:38;11.30;43.90
21495;DHT22;10909;53.590;10.054;2023-04-07T08:44:06;11.30;43.70
21495;DHT22;10909;53.590;10.054;2023-04-07T08:46:32;11.30;43.90
21495;DHT22;10909;53.590;10.054;2023-04-07T08:49:00;11.40;43.70
21495;DHT22;10909;53.590;10.054;2023-04-07T08:51:28;11.50;43.70
21495;DHT22;10909;53.590;10.054;2023-04-07T08:54:02;11.50;43.40
21495;DHT22;10909;53.590;10.054;2023-04-07T08:56:32;11.60;43.40
21495;DHT22;10909;53.590;10.054;2023-04-07T08:59:01;11.50;43.50
21495;DHT22;10909;53.590;10.054;2023-04-07T09:01:30;11.70;43.70
21495;DHT22;10909;53.590;10.054;2023-04-07T09:03:57;11.80;43.50
21495;DHT22;10909;53.590;10.054;2023-04-07T09:06:24;11.90;43.20
21495;DHT22;10909;53.590;10.054;2023-04-07T09:08:51;11.90;43.20
21495;DHT22;10909;53.590;10.054;2023-04-07T09:11:17;12.00;42.80
21495;DHT22;10909;53.590;10.054;2023-04-07T09:13:42;12.10;42.30
21495;DHT22;10909;53.590;10.054;2023-04-07T09:16:08;12.20;42.50
21495;DHT22;10909;53.590;10.054;2023-04-07T09:18:34;12.30;41.90
21495;DHT22;10909;53.590;10.054;2023-04-07T09:23:31;12.40;40.30
21495;DHT22;10909;53.590;10.054;2023-04-07T09:25:58;12.40;41.60
21495;DHT22;10909;53.590;10.054;2023-04-07T09:28:38;12.40;41.20
21495;DHT22;10909;53.590;10.054;2023-04-07T09:31:09;12.40;41.60
21495;DHT22;10909;53.590;10.054;2023-04-07T09:33:35;12.50;41.40
21495;DHT22;10909;53.590;10.054;2023-04-07T09:36:03;12.50;42.00
21495;DHT22;10909;53.590;10.054;2023-04-07T09:38:38;12.60;41.30
21495;DHT22;10909;53.590;10.054;2023-04-07T09:41:13;12.60;41.00
21495;DHT22;10909;53.590;10.054;2023-04-07T09:43:42;12.60;41.00
21495;DHT22;10909;53.590;10.054;2023-04-07T09:46:14;12.60;40.90
21495;DHT22;10909;53.590;10.054;2023-04-07T09:48:41;12.70;40.40
21495;DHT22;10909;53.590;10.054;2023-04-07T09:51:17;12.70;40.20
21495;DHT22;10909;53.590;10.054;2023-04-07T09:53:46;12.80;40.70
21495;DHT22;10909;53.590;10.054;2023-04-07T09:56:14;12.70;40.90
21495;DHT22;10909;53.590;10.054;2023-04-07T09:58:43;12.90;41.10
21495;DHT22;10909;53.590;10.054;2023-04-07T10:01:09;13.00;41.10
21495;DHT22;10909;53.590;10.054;2023-04-07T10:03:37;13.00;40.70
21495;DHT22;10909;53.590;10.054;2023-04-07T10:06:03;13.00;40.50
21495;DHT22;10909;53.590;10.054;2023-04-07T10:08:32;13.10;39.50
21495;DHT22;10909;53.590;10.054;2023-04-07T10:10:59;13.20;40.00
21495;DHT22;10909;53.590;10.054;2023-04-07T10:13:29;13.20;39.70
21495;DHT22;10909;53.590;10.054;2023-04-07T10:15:56;13.20;39.20
21495;DHT22;10909;53.590;10.054;2023-04-07T10:18:27;13.20;39.10
21495;DHT22;10909;53.590;10.054;2023-04-07T10:20:55;13.20;39.80
21495;DHT22;10909;53.590;10.054;2023-04-07T10:23:25;13.20;39.40
21495;DHT22;10909;53.590;10.054;2023-04-07T10:25:57;13.20;39.20
21495;DHT22;10909;53.590;10.054;2023-04-07T10:28:25;13.30;39.00
21495;DHT22;10909;53.590;10.054;2023-04-07T10:30:52;13.30;39.30
21495;DHT22;10909;53.590;10.054;2023-04-07T10:33:49;13.30;39.60
21495;DHT22;10909;53.590;10.054;2023-04-07T10:36:16;13.40;38.80
21495;DHT22;10909;53.590;10.054;2023-04-07T10:41:40;13.40;38.30
21495;DHT22;10909;53.590;10.054;2023-04-07T10:44:08;13.40;39.00
21495;DHT22;10909;53.590;10.054;2023-04-07T10:49:25;13.40;38.30
21495;DHT22;10909;53.590;10.054;2023-04-07T10:54:35;13.50;39.10
21495;DHT22;10909;53.590;10.054;2023-04-07T10:59:28;13.50;38.40
21495;DHT22;10909;53.590;10.054;2023-04-07T11:04:40;13.60;38.60
21495;DHT22;10909;53.590;10.054;2023-04-07T11:07:07;13.70;39.20
21495;DHT22;10909;53.590;10.054;2023-04-07T11:09:33;13.70;39.20
21495;DHT22;10909;53.590;10.054;2023-04-07T11:11:58;13.70;39.10
21495;DHT22;10909;53.590;10.054;2023-04-07T11:14:29;13.80;39.30
21495;DHT22;10909;53.590;10.054;2023-04-07T11:16:55;13.90;39.60
21495;DHT22;10909;53.590;10.054;2023-04-07T11:19:21;14.00;39.00
21495;DHT22;10909;53.590;10.054;2023-04-07T11:21:47;14.00;39.20
21495;DHT22;10909;53.590;10.054;2023-04-07T11:24:36;14.10;39.10
21495;DHT22;10909;53.590;10.054;2023-04-07T11:27:02;14.10;39.40
21495;DHT22;10909;53.590;10.054;2023-04-07T11:29:32;14.10;39.20
21495;DHT22;10909;53.590;10.054;2023-04-07T11:32:00;14.10;39.30
21495;DHT22;10909;53.590;10.054;2023-04-07T11:34:31;14.20;39.50
21495;DHT22;10909;53.590;10.054;2023-04-07T11:36:58;14.20;38.50
21495;DHT22;10909;53.590;10.054;2023-04-07T11:39:42;14.10;38.80
21495;DHT22;10909;53.590;10.054;2023-04-07T11:42:10;14.20;38.50
21495;DHT22;10909;53.590;10.054;2023-04-07T11:44:44;14.20;39.00
21495;DHT22;10909;53.590;10.054;2023-04-07T11:47:10;14.20;38.80
21495;DHT22;10909;53.590;10.054;2023-04-07T11:49:44;14.20;38.90
21495;DHT22;10909;53.590;10.054;2023-04-07T11:52:10;14.30;38.70
21495;DHT22;10909;53.590;10.054;2023-04-07T11:54:43;14.30;38.10
21495;DHT22;10909;53.590;10.054;2023-04-07T11:57:09;14.30;37.70
21495;DHT22;10909;53.590;10.054;2023-04-07T11:59:37;14.30;37.50
21495;DHT22;10909;53.590;10.054;2023-04-07T12:02:03;14.40;38.00
21495;DHT22;10909;53.590;10.054;2023-04-07T12:04:29;14.40;37.90
21495;DHT22;10909;53.590;10.054;2023-04-07T12:07:09;14.40;38.00
21495;DHT22;10909;53.590;10.054;2023-04-07T12:09:36;14.50;37.80
21495;DHT22;10909;53.590;10.054;2023-04-07T12:12:03;14.50;37.10
21495;DHT22;10909;53.590;10.054;2023-04-07T12:14:32;14.60;37.80
21495;DHT22;10909;53.590;10.054;2023-04-07T12:16:58;14.60;37.40
21495;DHT22;10909;53.590;10.054;2023-04-07T12:19:27;14.60;37.50
21495;DHT22;10909;53.590;10.054;2023-04-07T12:21:54;14.60;37.20
21495;DHT22;10909;53.590;10.054;2023-04-07T12:24:20;14.70;37.30
21495;DHT22;10909;53.590;10.054;2023-04-07T12:26:46;14.70;37.00
21495;DHT22;10909;53.590;10.054;2023-04-07T12:29:12;14.70;36.80
21495;DHT22;10909;53.590;10.054;2023-04-07T12:31:38;14.70;36.60
21495;DHT22;10909;53.590;10.054;2023-04-07T12:34:04;14.80;36.60
21495;DHT22;10909;53.590;10.054;2023-04-07T12:36:30;14.70;36.00
21495;DHT22;10909;53.590;10.054;2023-04-07T12:38:56;14.80;36.70
21495;DHT22;10909;53.590;10.054;2023-04-07T12:41:23;14.80;36.30
21495;DHT22;10909;53.590;10.054;2023-04-07T12:43:48;14.80;36.70
21495;DHT22;10909;53.590;10.054;2023-04-07T12:46:14;15.00;37.80
21495;DHT22;10909;53.590;10.054;2023-04-07T12:48:40;15.20;38.20
21495;DHT22;10909;53.590;10.054;2023-04-07T12:51:06;15.50;37.90
21495;DHT22;10909;53.590;10.054;2023-04-07T12:53:31;15.80;37.40
21495;DHT22;10909;53.590;10.054;2023-04-07T12:55:57;16.20;37.50
21495;DHT22;10909;53.590;10.054;2023-04-07T12:58:24;16.60;37.00
21495;DHT22;10909;53.590;10.054;2023-04-07T13:00:51;17.10;38.30
21495;DHT22;10909;53.590;10.054;2023-04-07T13:03:18;17.60;37.50
21495;DHT22;10909;53.590;10.054;2023-04-07T13:05:43;18.00;37.50
21495;DHT22;10909;53.590;10.054;2023-04-07T13:08:09;18.50;36.30
21495;DHT22;10909;53.590;10.054;2023-04-07T13:10:35;19.00;36.60
21495;DHT22;10909;53.590;10.054;2023-04-07T13:13:02;19.40;36.80
21495;DHT22;10909;53.590;10.054;2023-04-07T13:15:28;19.70;35.50
21495;DHT22;10909;53.590;10.054;2023-04-07T13:17:54;20.10;35.00
21495;DHT22;10909;53.590;10.054;2023-04-07T13:20:20;20.50;34.80
21495;DHT22;10909;53.590;10.054;2023-04-07T13:22:47;20.70;34.20
21495;DHT22;10909;53.590;10.054;2023-04-07T13:25:13;20.90;33.40
21495;DHT22;10909;53.590;10.054;2023-04-07T13:27:38;21.10;33.80
21495;DHT22;10909;53.590;10.054;2023-04-07T13:30:04;21.40;32.70
21495;DHT22;10909;53.590;10.054;2023-04-07T13:32:31;21.70;31.80
21495;DHT22;10909;53.590;10.054;2023-04-07T13:34:56;21.70;31.70
21495;DHT22;10909;53.590;10.054;2023-04-07T13:37:22;21.80;30.70
21495;DHT22;10909;53.590;10.054;2023-04-07T13:39:49;21.90;30.80
21495;DHT22;10909;53.590;10.054;2023-04-07T13:42:15;22.00;30.00
21495;DHT22;10909;53.590;10.054;2023-04-07T13:47:13;22.10;28.80
21495;DHT22;10909;53.590;10.054;2023-04-07T13:49:47;22.20;30.00
21495;DHT22;10909;53.590;10.054;2023-04-07T13:52:14;22.20;30.20
21495;DHT22;10909;53.590;10.054;2023-04-07T13:54:40;22.30;30.30
21495;DHT22;10909;53.590;10.054;2023-04-07T13:57:06;22.80;32.60
21495;DHT22;10909;53.590;10.054;2023-04-07T13:59:33;22.90;30.90
21495;DHT22;10909;53.590;10.054;2023-04-07T14:01:58;23.00;31.90
21495;DHT22;10909;53.590;10.054;2023-04-07T14:04:24;23.60;31.00
21495;DHT22;10909;53.590;10.054;2023-04-07T14:06:50;24.10;31.00
21495;DHT22;10909;53.590;10.054;2023-04-07T14:09:16;24.00;31.90
21495;DHT22;10909;53.590;10.054;2023-04-07T14:11:41;24.40;32.00
21495;DHT22;10909;53.590;10.054;2023-04-07T14:14:07;24.90;31.30
21495;DHT22;10909;53.590;10.054;2023-04-07T14:16:34;25.10;31.10
21495;DHT22;10909;53.590;10.054;2023-04-07T14:19:00;25.40;31.20
21495;DHT22;10909;53.590;10.054;2023-04-07T14:21:27;25.60;30.60
21495;DHT22;10909;53.590;10.054;2023-04-07T14:23:53;25.80;30.60
21495;DHT22;10909;53.590;10.054;2023-04-07T14:26:20;26.10;29.90
21495;DHT22;10909;53.590;10.054;2023-04-07T14:28:45;26.20;29.90
21495;DHT22;10909;53.590;10.054;2023-04-07T14:31:13;26.10;29.40
21495;DHT22;10909;53.590;10.054;2023-04-07T14:33:41;25.90;29.20
21495;DHT22;10909;53.590;10.054;2023-04-07T14:36:06;25.70;29.70
21495;DHT22;10909;53.590;10.054;2023-04-07T14:38:32;25.30;29.00
21495;DHT22;10909;53.590;10.054;2023-04-07T14:40:58;24.70;29.10
21495;DHT22;10909;53.590;10.054;2023-04-07T14:43:23;24.00;29.20
21495;DHT22;10909;53.590;10.054;2023-04-07T14:45:49;23.30;30.00
21495;DHT22;10909;53.590;10.054;2023-04-07T14:48:15;22.50;30.00
21495;DHT22;10909;53.590;10.054;2023-04-07T14:50:41;21.90;31.40
21495;DHT22;10909;53.590;10.054;2023-04-07T14:53:07;21.30;31.50
21495;DHT22;10909;53.590;10.054;2023-04-07T14:55:33;20.70;32.10
21495;DHT22;10909;53.590;10.054;2023-04-07T14:57:59;20.00;32.70
21495;DHT22;10909;53.590;10.054;2023-04-07T15:00:24;19.40;33.50
21495;DHT22;10909;53.590;10.054;2023-04-07T15:02:51;18.80;34.20
21495;DHT22;10909;53.590;10.054;2023-04-07T15:05:20;18.10;35.00
21495;DHT22;10909;53.590;10.054;2023-04-07T15:07:50;17.60;35.80
21495;DHT22;10909;53.590;10.054;2023-04-07T15:10:17;17.10;36.70
21495;DHT22;10909;53.590;10.054;2023-04-07T15:12:43;16.80;36.80
21495;DHT22;10909;53.590;10.054;2023-04-07T15:15:13;16.50;37.40
21495;DHT22;10909;53.590;10.054;2023-04-07T15:17:40;16.40;38.20
21495;DHT22;10909;53.590;10.054;2023-04-07T15:20:06;16.20;38.40
21495;DHT22;10909;53.590;10.054;2023-04-07T15:22:32;16.00;38.50
21495;DHT22;10909;53.590;10.054;2023-04-07T15:24:58;15.90;39.10
21495;DHT22;10909;53.590;10.054;2023-04-07T15:27:23;15.80;39.50
21495;DHT22;10909;53.590;10.054;2023-04-07T15:29:49;15.70;39.30
21495;DHT22;10909;53.590;10.054;2023-04-07T15:32:15;15.60;39.90
21495;DHT22;10909;53.590;10.054;2023-04-07T15:34:41;15.60;40.60
21495;DHT22;10909;53.590;10.054;2023-04-07T15:37:06;15.50;40.30
21495;DHT22;10909;53.590;10.054;2023-04-07T15:39:32;15.40;40.00
21495;DHT22;10909;53.590;10.054;2023-04-07T15:41:58;15.30;40.70
21495;DHT22;10909;53.590;10.054;2023-04-07T15:44:24;15.30;40.30
21495;DHT22;10909;53.590;10.054;2023-04-07T15:46:49;15.20;40.40
21495;DHT22;10909;53.590;10.054;2023-04-07T15:49:15;15.10;40.90
21495;DHT22;10909;53.590;10.054;2023-04-07T15:51:45;15.10;41.10
21495;DHT22;10909;53.590;10.054;2023-04-07T15:54:11;15.00;41.30